createdAt,value
2018-09-09T00:00:25.336Z,3.20
2018-09-09T00:01:00.548Z,3.50
2018-09-09T00:01:35.977Z,3.83
2018-09-09T00:02:12.237Z,3.33
2018-09-09T00:02:47.578Z,3.35
2018-09-09T00:03:22.915Z,3.47
2018-09-09T00:03:58.112Z,3.52
2018-09-09T00:04:33.374Z,3.58
2018-09-09T00:05:09.242Z,3.60
2018-09-09T00:05:44.954Z,3.40
2018-09-09T00:06:20.225Z,3.52
2018-09-09T00:06:55.418Z,3.47
2018-09-09T00:07:30.592Z,2.98
2018-09-09T00:08:06.112Z,3.10
2018-09-09T00:08:41.482Z,3.20
2018-09-09T00:09:20.941Z,3.02
2018-09-09T00:09:56.121Z,3.58
2018-09-09T00:10:31.351Z,3.50
2018-09-09T00:11:06.808Z,3.00
2018-09-09T00:11:42.332Z,3.45
2018-09-09T00:12:18.101Z,3.12
2018-09-09T00:12:53.315Z,3.67
2018-09-09T00:13:28.601Z,3.45
2018-09-09T00:14:03.829Z,2.72
2018-09-09T00:14:39.587Z,3.08
2018-09-09T00:15:14.918Z,3.25
2018-09-09T00:15:50.231Z,3.05
2018-09-09T00:16:25.640Z,2.90
2018-09-09T00:17:00.826Z,3.15
2018-09-09T00:17:36.460Z,3.40
2018-09-09T00:18:12.014Z,3.33
2018-09-09T00:18:47.706Z,3.27
2018-09-09T00:19:22.866Z,3.80
2018-09-09T00:19:57.538Z,3.20
2018-09-09T00:20:32.736Z,2.92
2018-09-09T00:21:08.950Z,3.30
2018-09-09T00:21:44.418Z,3.40
2018-09-09T00:22:19.765Z,2.85
2018-09-09T00:22:54.929Z,3.40
2018-09-09T00:23:30.118Z,3.47
2018-09-09T00:24:05.790Z,2.60
2018-09-09T00:24:41.090Z,3.22
2018-09-09T00:25:16.761Z,3.40
2018-09-09T00:25:51.957Z,3.33
2018-09-09T00:26:27.173Z,2.87
2018-09-09T00:27:02.345Z,2.58
2018-09-09T00:27:37.649Z,2.80
2018-09-09T00:28:13.612Z,3.08
2018-09-09T00:28:48.911Z,2.75
2018-09-09T00:29:24.091Z,2.72
2018-09-09T00:29:59.251Z,3.02
2018-09-09T00:30:34.796Z,2.52
2018-09-09T00:31:10.424Z,3.27
2018-09-09T00:31:46.534Z,2.60
2018-09-09T00:32:21.752Z,3.33
2018-09-09T00:32:56.960Z,2.70
2018-09-09T00:33:32.313Z,2.83
2018-09-09T00:34:07.900Z,2.47
2018-09-09T00:34:43.283Z,2.92
2018-09-09T00:35:18.557Z,2.70
2018-09-09T00:35:53.754Z,2.60
2018-09-09T00:36:28.970Z,2.80
2018-09-09T00:37:04.334Z,3.10
2018-09-09T00:37:40.074Z,2.67
2018-09-09T00:38:16.029Z,2.75
2018-09-09T00:38:51.191Z,2.60
2018-09-09T00:39:26.359Z,2.85
2018-09-09T00:40:01.541Z,2.80
2018-09-09T00:40:37.018Z,2.65
2018-09-09T00:41:13.028Z,2.55
2018-09-09T00:41:48.459Z,2.90
2018-09-09T00:42:23.623Z,2.80
2018-09-09T00:42:58.824Z,2.65
2018-09-09T00:43:34.067Z,2.95
2018-09-09T00:44:09.605Z,2.85
2018-09-09T00:44:45.080Z,2.98
2018-09-09T00:45:20.265Z,2.92
2018-09-09T00:45:54.957Z,2.80
2018-09-09T00:46:30.121Z,2.72
2018-09-09T00:47:05.442Z,2.50
2018-09-09T00:47:40.878Z,3.12
2018-09-09T00:48:16.580Z,2.77
2018-09-09T00:48:56.346Z,2.92
2018-09-09T00:49:36.771Z,2.85
2018-09-09T00:50:17.250Z,2.65
2018-09-09T00:50:57.691Z,2.40
2018-09-09T00:51:38.233Z,2.62
2018-09-09T00:52:18.994Z,2.75
2018-09-09T00:52:59.371Z,3.05
2018-09-09T00:53:39.957Z,2.98
2018-09-09T00:54:15.726Z,2.87
2018-09-09T00:54:51.051Z,2.65
2018-09-09T00:55:26.233Z,2.80
2018-09-09T00:56:01.468Z,2.85
2018-09-09T00:56:36.993Z,2.83
2018-09-09T00:57:12.824Z,2.70
2018-09-09T00:57:48.219Z,2.52
2018-09-09T00:58:23.399Z,3.00
2018-09-09T00:58:58.570Z,2.90
2018-09-09T00:59:33.309Z,2.77
2018-09-09T01:00:08.690Z,2.80
2018-09-09T01:00:49.525Z,2.95
2018-09-09T01:01:24.693Z,2.70
2018-09-09T01:01:59.890Z,2.67
2018-09-09T01:02:35.252Z,2.40
2018-09-09T01:03:11.101Z,2.98
2018-09-09T01:03:47.804Z,3.00
2018-09-09T01:04:22.969Z,2.95
2018-09-09T01:04:58.148Z,3.25
2018-09-09T01:05:33.334Z,3.22
2018-09-09T01:06:09.202Z,3.10
2018-09-09T01:06:44.608Z,3.40
2018-09-09T01:07:20.154Z,2.80
2018-09-09T01:07:55.322Z,2.87
2018-09-09T01:08:30.742Z,2.62
2018-09-09T01:09:08.359Z,3.25
2018-09-09T01:09:43.789Z,3.27
2018-09-09T01:10:19.117Z,3.22
2018-09-09T01:10:54.306Z,2.92
2018-09-09T01:11:29.483Z,2.90
2018-09-09T01:12:05.377Z,2.80
2018-09-09T01:12:40.722Z,3.17
2018-09-09T01:13:16.017Z,2.60
2018-09-09T01:13:51.214Z,2.42
2018-09-09T01:14:26.379Z,2.47
2018-09-09T01:15:01.564Z,2.80
2018-09-09T01:15:37.608Z,2.30
2018-09-09T01:16:13.262Z,2.47
2018-09-09T01:16:49.059Z,2.77
2018-09-09T01:17:24.229Z,2.50
2018-09-09T01:17:59.435Z,2.85
2018-09-09T01:18:34.708Z,2.77
2018-09-09T01:19:10.311Z,2.58
2018-09-09T01:19:45.834Z,2.50
2018-09-09T01:20:21.557Z,2.87
2018-09-09T01:20:56.730Z,2.95
2018-09-09T01:21:32.248Z,2.90
2018-09-09T01:22:07.810Z,2.58
2018-09-09T01:22:43.299Z,3.00
2018-09-09T01:23:18.488Z,2.90
2018-09-09T01:23:53.668Z,2.50
2018-09-09T01:24:29.041Z,2.60
2018-09-09T01:25:04.751Z,2.80
2018-09-09T01:25:40.447Z,3.00
2018-09-09T01:26:16.311Z,3.00
2018-09-09T01:26:51.781Z,2.33
2018-09-09T01:27:27.018Z,2.92
2018-09-09T01:28:02.214Z,2.98
2018-09-09T01:28:37.754Z,2.80
2018-09-09T01:29:13.119Z,2.80
2018-09-09T01:29:48.413Z,2.50
2018-09-09T01:30:23.595Z,2.60
2018-09-09T01:30:58.754Z,2.33
2018-09-09T01:31:33.976Z,2.67
2018-09-09T01:32:09.533Z,3.08
2018-09-09T01:32:44.453Z,3.15
2018-09-09T01:33:19.629Z,2.70
2018-09-09T01:33:54.856Z,3.40
2018-09-09T01:34:30.043Z,2.87
2018-09-09T01:35:05.650Z,2.62
2018-09-09T01:35:41.032Z,3.33
2018-09-09T01:36:16.313Z,2.80
2018-09-09T01:36:51.470Z,2.65
2018-09-09T01:37:26.728Z,3.02
2018-09-09T01:38:01.895Z,3.58
2018-09-09T01:38:37.303Z,2.92
2018-09-09T01:39:12.874Z,3.25
2018-09-09T01:39:48.288Z,3.62
2018-09-09T01:40:23.441Z,3.27
2018-09-09T01:40:58.607Z,3.22
2018-09-09T01:41:33.815Z,3.60
2018-09-09T01:42:09.728Z,3.05
2018-09-09T01:42:45.174Z,3.55
2018-09-09T01:43:20.887Z,3.22
2018-09-09T01:43:56.053Z,3.55
2018-09-09T01:44:31.226Z,3.35
2018-09-09T01:45:06.677Z,3.22
2018-09-09T01:45:42.519Z,3.08
2018-09-09T01:46:18.143Z,3.72
2018-09-09T01:46:53.495Z,3.40
2018-09-09T01:47:28.670Z,3.22
2018-09-09T01:48:04.111Z,3.20
2018-09-09T01:48:40.163Z,3.08
2018-09-09T01:49:15.869Z,3.12
2018-09-09T01:49:50.598Z,3.30
2018-09-09T01:50:25.769Z,3.47
2018-09-09T01:51:00.927Z,3.67
2018-09-09T01:51:36.477Z,3.50
2018-09-09T01:52:12.102Z,3.30
2018-09-09T01:52:48.088Z,3.10
2018-09-09T01:53:23.354Z,3.30
2018-09-09T01:53:58.624Z,3.15
2018-09-09T01:54:40.635Z,3.25
2018-09-09T01:55:16.068Z,3.25
2018-09-09T01:55:51.275Z,3.75
2018-09-09T01:56:26.498Z,2.98
2018-09-09T01:57:01.678Z,3.30
2018-09-09T01:57:37.074Z,3.20
2018-09-09T01:58:13.241Z,3.62
2018-09-09T01:58:48.406Z,2.92
2018-09-09T01:59:23.583Z,2.90
2018-09-09T01:59:58.858Z,3.37
2018-09-09T02:00:34.152Z,3.52
2018-09-09T02:01:09.854Z,3.22
2018-09-09T02:01:45.331Z,3.50
2018-09-09T02:02:20.686Z,3.12
2018-09-09T02:02:55.858Z,3.30
2018-09-09T02:03:31.006Z,3.20
2018-09-09T02:04:07.116Z,3.30
2018-09-09T02:04:42.368Z,3.45
2018-09-09T02:05:17.868Z,3.22
2018-09-09T02:05:53.041Z,3.42
2018-09-09T02:06:28.321Z,3.02
2018-09-09T02:07:02.983Z,3.08
2018-09-09T02:07:39.465Z,3.17
2018-09-09T02:08:14.788Z,2.90
2018-09-09T02:08:49.965Z,3.10
2018-09-09T02:09:25.129Z,3.10
2018-09-09T02:10:00.289Z,3.22
2018-09-09T02:10:35.617Z,3.37
2018-09-09T02:11:11.155Z,2.87
2018-09-09T02:11:46.778Z,3.00
2018-09-09T02:12:21.958Z,3.02
2018-09-09T02:12:57.127Z,3.45
2018-09-09T02:13:32.767Z,2.87
2018-09-09T02:14:08.487Z,3.00
2018-09-09T02:14:44.356Z,2.85
2018-09-09T02:15:19.571Z,2.60
2018-09-09T02:15:54.774Z,3.17
2018-09-09T02:16:29.948Z,3.08
2018-09-09T02:17:05.606Z,3.22
2018-09-09T02:17:41.174Z,3.30
2018-09-09T02:18:16.617Z,3.10
2018-09-09T02:18:51.917Z,2.75
2018-09-09T02:19:27.082Z,3.30
2018-09-09T02:20:02.237Z,3.17
2018-09-09T02:20:38.568Z,2.98
2018-09-09T02:21:13.981Z,2.92
2018-09-09T02:21:49.366Z,2.65
2018-09-09T02:22:24.096Z,2.80
2018-09-09T02:22:59.283Z,2.75
2018-09-09T02:23:34.832Z,2.80
2018-09-09T02:24:10.397Z,3.08
2018-09-09T02:24:45.940Z,3.10
2018-09-09T02:25:21.259Z,3.35
2018-09-09T02:25:56.511Z,2.80
2018-09-09T02:26:31.877Z,2.98
2018-09-09T02:27:07.744Z,3.40
2018-09-09T02:27:43.359Z,3.17
2018-09-09T02:28:18.920Z,3.12
2018-09-09T02:28:54.082Z,2.95
2018-09-09T02:29:29.247Z,2.90
2018-09-09T02:30:05.006Z,3.02
2018-09-09T02:30:40.369Z,3.10
2018-09-09T02:31:15.624Z,2.77
2018-09-09T02:31:50.909Z,3.10
2018-09-09T02:32:26.046Z,2.80
2018-09-09T02:33:01.238Z,2.50
2018-09-09T02:33:36.744Z,3.00
2018-09-09T02:34:12.183Z,2.77
2018-09-09T02:34:47.516Z,2.72
2018-09-09T02:35:22.682Z,2.47
2018-09-09T02:35:57.858Z,2.70
2018-09-09T02:36:33.050Z,2.70
2018-09-09T02:37:08.438Z,3.05
2018-09-09T02:37:43.932Z,2.98
2018-09-09T02:38:19.512Z,2.45
2018-09-09T02:38:54.684Z,2.77
2018-09-09T02:39:29.848Z,2.37
2018-09-09T02:40:05.209Z,3.30
2018-09-09T02:40:41.155Z,2.92
2018-09-09T02:41:16.791Z,2.75
2018-09-09T02:41:51.987Z,2.55
2018-09-09T02:42:27.159Z,2.70
2018-09-09T02:43:02.475Z,3.12
2018-09-09T02:43:37.956Z,2.85
2018-09-09T02:44:13.697Z,2.37
2018-09-09T02:44:49.047Z,2.83
2018-09-09T02:45:24.204Z,2.70
2018-09-09T02:45:59.374Z,2.60
2018-09-09T02:46:34.610Z,2.58
2018-09-09T02:47:10.245Z,2.92
2018-09-09T02:47:45.378Z,2.60
2018-09-09T02:48:20.739Z,2.62
2018-09-09T02:48:55.932Z,2.33
2018-09-09T02:49:31.093Z,2.27
2018-09-09T02:50:06.479Z,2.90
2018-09-09T02:50:42.004Z,2.67
2018-09-09T02:51:17.564Z,3.08
2018-09-09T02:51:52.767Z,2.70
2018-09-09T02:52:27.971Z,2.67
2018-09-09T02:53:03.144Z,2.67
2018-09-09T02:53:38.574Z,2.65
2018-09-09T02:54:14.012Z,3.27
2018-09-09T02:54:49.247Z,2.52
2018-09-09T02:55:24.633Z,2.58
2018-09-09T02:55:59.865Z,2.65
2018-09-09T02:56:35.226Z,2.40
2018-09-09T02:57:10.916Z,2.75
2018-09-09T02:57:46.243Z,2.50
2018-09-09T02:58:21.431Z,2.65
2018-09-09T02:58:56.590Z,2.67
2018-09-09T02:59:31.751Z,2.17
2018-09-09T03:00:07.238Z,2.67
2018-09-09T03:00:42.785Z,2.70
2018-09-09T03:01:17.967Z,2.80
2018-09-09T03:01:53.122Z,2.60
2018-09-09T03:02:28.301Z,2.40
2018-09-09T03:03:03.581Z,2.10
2018-09-09T03:03:38.846Z,2.40
2018-09-09T03:04:14.273Z,2.52
2018-09-09T03:04:49.794Z,2.62
2018-09-09T03:05:24.959Z,2.40
2018-09-09T03:06:00.139Z,2.65
2018-09-09T03:06:35.413Z,1.90
2018-09-09T03:07:10.890Z,2.37
2018-09-09T03:07:46.267Z,2.37
2018-09-09T03:08:21.122Z,2.15
2018-09-09T03:08:56.528Z,2.30
2018-09-09T03:09:31.754Z,2.40
2018-09-09T03:10:07.162Z,2.80
2018-09-09T03:10:42.500Z,2.10
2018-09-09T03:11:17.768Z,2.30
2018-09-09T03:11:52.946Z,2.20
2018-09-09T03:12:28.143Z,2.70
2018-09-09T03:13:03.407Z,2.40
2018-09-09T03:13:38.712Z,2.50
2018-09-09T03:14:13.956Z,2.50
2018-09-09T03:14:49.194Z,2.70
2018-09-09T03:15:24.560Z,2.50
2018-09-09T03:15:59.746Z,2.62
2018-09-09T03:16:34.947Z,2.33
2018-09-09T03:17:10.396Z,2.30
2018-09-09T03:17:45.820Z,2.10
2018-09-09T03:18:21.039Z,2.22
2018-09-09T03:18:56.238Z,2.30
2018-09-09T03:19:31.433Z,2.33
2018-09-09T03:20:06.732Z,2.12
2018-09-09T03:20:42.076Z,2.33
2018-09-09T03:21:17.404Z,2.52
2018-09-09T03:21:52.680Z,2.40
2018-09-09T03:22:27.988Z,2.60
2018-09-09T03:23:03.211Z,2.60
2018-09-09T03:23:38.796Z,2.27
2018-09-09T03:24:14.294Z,2.40
2018-09-09T03:24:49.601Z,2.27
2018-09-09T03:25:24.849Z,2.15
2018-09-09T03:26:00.946Z,2.35
2018-09-09T03:26:36.430Z,1.85
2018-09-09T03:27:11.991Z,2.35
2018-09-09T03:27:47.259Z,2.33
2018-09-09T03:28:22.004Z,2.30
2018-09-09T03:28:57.163Z,2.30
2018-09-09T03:29:32.336Z,2.00
2018-09-09T03:30:08.069Z,2.17
2018-09-09T03:30:43.344Z,2.45
2018-09-09T03:31:18.650Z,2.60
2018-09-09T03:31:53.893Z,2.37
2018-09-09T03:32:29.094Z,2.45
2018-09-09T03:33:04.320Z,2.45
2018-09-09T03:33:39.590Z,2.50
2018-09-09T03:34:14.797Z,2.20
2018-09-09T03:34:49.976Z,2.70
2018-09-09T03:35:25.203Z,2.30
2018-09-09T03:36:00.392Z,2.27
2018-09-09T03:36:35.582Z,2.62
2018-09-09T03:37:11.064Z,2.30
2018-09-09T03:37:46.254Z,2.35
2018-09-09T03:38:21.603Z,2.50
2018-09-09T03:38:56.770Z,2.33
2018-09-09T03:39:31.935Z,2.62
2018-09-09T03:40:07.173Z,2.37
2018-09-09T03:40:42.766Z,2.00
2018-09-09T03:41:17.946Z,2.05
2018-09-09T03:41:53.143Z,2.35
2018-09-09T03:42:28.334Z,2.37
2018-09-09T03:43:03.515Z,2.50
2018-09-09T03:43:38.767Z,2.40
2018-09-09T03:44:13.936Z,2.20
2018-09-09T03:44:49.136Z,2.00
2018-09-09T03:45:24.392Z,2.70
2018-09-09T03:45:59.558Z,2.05
2018-09-09T03:46:35.449Z,2.40
2018-09-09T03:47:10.772Z,1.80
2018-09-09T03:47:45.970Z,2.55
2018-09-09T03:48:21.150Z,2.02
2018-09-09T03:48:56.454Z,2.15
2018-09-09T03:49:31.626Z,2.50
2018-09-09T03:50:06.850Z,2.10
2018-09-09T03:50:42.386Z,1.90
2018-09-09T03:51:17.848Z,2.20
2018-09-09T03:51:53.038Z,2.40
2018-09-09T03:52:28.247Z,2.12
2018-09-09T03:53:03.511Z,1.75
2018-09-09T03:53:38.879Z,2.25
2018-09-09T03:54:14.169Z,2.30
2018-09-09T03:54:49.354Z,2.50
2018-09-09T03:55:24.531Z,2.30
2018-09-09T03:55:59.678Z,2.10
2018-09-09T03:56:34.906Z,2.10
2018-09-09T03:57:10.155Z,2.45
2018-09-09T03:57:45.417Z,2.47
2018-09-09T03:58:20.602Z,2.12
2018-09-09T03:58:55.784Z,2.27
2018-09-09T03:59:30.938Z,2.15
2018-09-09T04:00:06.318Z,2.30
2018-09-09T04:00:41.549Z,2.45
2018-09-09T04:01:16.794Z,2.40
2018-09-09T04:01:51.950Z,2.00
2018-09-09T04:02:27.220Z,2.20
2018-09-09T04:03:02.394Z,2.27
2018-09-09T04:03:37.654Z,2.02
2018-09-09T04:04:12.932Z,1.98
2018-09-09T04:04:48.194Z,1.90
2018-09-09T04:05:23.372Z,2.02
2018-09-09T04:05:58.557Z,2.27
2018-09-09T04:06:33.742Z,1.90
2018-09-09T04:07:08.980Z,2.00
2018-09-09T04:07:44.335Z,2.12
2018-09-09T04:08:19.628Z,2.17
2018-09-09T04:08:54.825Z,2.00
2018-09-09T04:09:30.002Z,2.10
2018-09-09T04:10:05.362Z,2.02
2018-09-09T04:10:40.775Z,2.40
2018-09-09T04:11:15.966Z,2.20
2018-09-09T04:11:51.203Z,2.40
2018-09-09T04:12:26.428Z,2.33
2018-09-09T04:13:01.611Z,2.27
2018-09-09T04:13:37.287Z,2.12
2018-09-09T04:14:12.622Z,1.82
2018-09-09T04:14:47.823Z,2.30
2018-09-09T04:15:23.027Z,2.20
2018-09-09T04:15:58.502Z,1.80
2018-09-09T04:16:33.654Z,2.08
2018-09-09T04:17:08.403Z,2.27
2018-09-09T04:17:43.890Z,2.40
2018-09-09T04:18:19.119Z,2.15
2018-09-09T04:18:54.279Z,2.35
2018-09-09T04:19:29.459Z,2.33
2018-09-09T04:20:04.655Z,2.20
2018-09-09T04:20:39.919Z,2.20
2018-09-09T04:21:15.263Z,2.20
2018-09-09T04:21:53.335Z,1.90
2018-09-09T04:22:28.543Z,2.30
2018-09-09T04:23:03.739Z,2.10
2018-09-09T04:23:39.295Z,2.27
2018-09-09T04:24:14.664Z,2.33
2018-09-09T04:24:53.015Z,2.58
2018-09-09T04:25:28.210Z,2.17
2018-09-09T04:26:03.383Z,2.30
2018-09-09T04:26:38.143Z,2.80
2018-09-09T04:27:13.370Z,1.95
2018-09-09T04:27:48.094Z,2.25
2018-09-09T04:28:23.269Z,2.58
2018-09-09T04:28:58.460Z,2.70
2018-09-09T04:29:33.635Z,2.90
2018-09-09T04:30:09.010Z,2.35
2018-09-09T04:30:44.365Z,2.87
2018-09-09T04:31:19.690Z,2.70
2018-09-09T04:31:54.881Z,2.30
2018-09-09T04:32:30.050Z,2.60
2018-09-09T04:33:05.683Z,2.45
2018-09-09T04:33:40.982Z,2.60
2018-09-09T04:34:16.170Z,2.37
2018-09-09T04:34:51.347Z,2.60
2018-09-09T04:35:26.514Z,2.62
2018-09-09T04:36:01.715Z,2.50
2018-09-09T04:36:37.007Z,2.27
2018-09-09T04:37:12.506Z,2.15
2018-09-09T04:37:47.866Z,2.58
2018-09-09T04:38:23.048Z,2.47
2018-09-09T04:38:58.227Z,2.37
2018-09-09T04:39:33.443Z,2.37
2018-09-09T04:40:08.164Z,2.75
2018-09-09T04:40:42.938Z,2.47
2018-09-09T04:41:18.109Z,2.40
2018-09-09T04:41:53.322Z,2.67
2018-09-09T04:42:27.931Z,2.67
2018-09-09T04:43:02.533Z,2.70
2018-09-09T04:43:38.139Z,2.90
2018-09-09T04:44:14.005Z,2.30
2018-09-09T04:44:49.176Z,2.65
2018-09-09T04:45:24.339Z,2.55
2018-09-09T04:45:59.514Z,2.33
2018-09-09T04:46:34.790Z,2.45
2018-09-09T04:47:10.063Z,2.50
2018-09-09T04:47:45.260Z,2.60
2018-09-09T04:48:20.459Z,2.45
2018-09-09T04:48:55.795Z,2.30
2018-09-09T04:49:31.040Z,2.30
2018-09-09T04:50:06.736Z,2.40
2018-09-09T04:50:42.028Z,2.58
2018-09-09T04:51:17.230Z,2.60
2018-09-09T04:51:52.415Z,2.95
2018-09-09T04:52:27.629Z,2.42
2018-09-09T04:53:02.807Z,2.42
2018-09-09T04:53:38.153Z,2.45
2018-09-09T04:54:13.416Z,3.00
2018-09-09T04:54:48.739Z,2.72
2018-09-09T04:55:23.897Z,2.40
2018-09-09T04:55:59.070Z,2.30
2018-09-09T04:56:34.774Z,2.72
2018-09-09T04:57:10.147Z,2.30
2018-09-09T04:57:45.420Z,2.83
2018-09-09T04:58:20.631Z,2.72
2018-09-09T04:58:55.820Z,2.35
2018-09-09T04:59:31.013Z,2.90
2018-09-09T05:00:07.282Z,2.37
2018-09-09T05:00:42.538Z,2.75
2018-09-09T05:01:17.773Z,2.77
2018-09-09T05:01:53.160Z,2.65
2018-09-09T05:02:28.349Z,2.77
2018-09-09T05:03:03.563Z,2.45
2018-09-09T05:03:39.144Z,2.70
2018-09-09T05:04:14.566Z,2.52
2018-09-09T05:04:49.774Z,2.75
2018-09-09T05:05:24.437Z,2.50
2018-09-09T05:05:59.634Z,2.65
2018-09-09T05:06:35.084Z,2.60
2018-09-09T05:07:10.864Z,2.30
2018-09-09T05:07:46.137Z,2.40
2018-09-09T05:08:21.964Z,2.55
2018-09-09T05:08:56.590Z,2.50
2018-09-09T05:09:31.744Z,2.62
2018-09-09T05:10:07.489Z,2.58
2018-09-09T05:10:42.870Z,2.75
2018-09-09T05:11:17.742Z,2.60
2018-09-09T05:11:52.932Z,2.10
2018-09-09T05:12:28.178Z,2.15
2018-09-09T05:13:03.836Z,2.80
2018-09-09T05:13:39.873Z,2.52
2018-09-09T05:14:15.437Z,2.45
2018-09-09T05:14:50.750Z,2.65
2018-09-09T05:15:25.951Z,2.55
2018-09-09T05:16:01.194Z,2.70
2018-09-09T05:16:37.774Z,2.50
2018-09-09T05:17:13.230Z,2.33
2018-09-09T05:17:48.967Z,2.80
2018-09-09T05:18:24.145Z,2.80
2018-09-09T05:18:59.316Z,2.95
2018-09-09T05:19:34.552Z,2.80
2018-09-09T05:20:10.148Z,3.00
2018-09-09T05:20:45.417Z,2.60
2018-09-09T05:21:20.766Z,2.67
2018-09-09T05:21:56.096Z,2.80
2018-09-09T05:22:31.315Z,2.42
2018-09-09T05:23:06.894Z,2.27
2018-09-09T05:23:42.544Z,2.40
2018-09-09T05:24:17.837Z,2.98
2018-09-09T05:24:53.008Z,2.80
2018-09-09T05:25:28.226Z,2.50
2018-09-09T05:26:03.439Z,2.50
2018-09-09T05:26:38.890Z,2.80
2018-09-09T05:27:14.297Z,2.65
2018-09-09T05:27:49.660Z,2.83
2018-09-09T05:28:24.949Z,2.75
2018-09-09T05:29:00.263Z,2.55
2018-09-09T05:29:35.968Z,2.77
2018-09-09T05:30:12.192Z,2.45
2018-09-09T05:30:48.452Z,2.70
2018-09-09T05:31:23.619Z,2.47
2018-09-09T05:31:58.802Z,2.70
2018-09-09T05:32:33.985Z,2.65
2018-09-09T05:33:09.603Z,3.08
2018-09-09T05:33:45.276Z,2.52
2018-09-09T05:34:20.465Z,2.80
2018-09-09T05:34:55.689Z,2.70
2018-09-09T05:35:30.889Z,2.47
2018-09-09T05:36:07.457Z,2.83
2018-09-09T05:36:43.256Z,2.80
2018-09-09T05:37:19.048Z,2.80
2018-09-09T05:37:54.218Z,2.65
2018-09-09T05:38:29.506Z,2.67
2018-09-09T05:39:09.272Z,2.60
2018-09-09T05:39:44.789Z,2.20
2018-09-09T05:40:19.995Z,2.50
2018-09-09T05:40:55.194Z,2.92
2018-09-09T05:41:30.382Z,2.92
2018-09-09T05:42:05.755Z,2.77
2018-09-09T05:42:41.019Z,2.72
2018-09-09T05:43:17.190Z,2.90
2018-09-09T05:43:52.359Z,3.45
2018-09-09T05:44:27.551Z,2.80
2018-09-09T05:45:02.728Z,2.98
2018-09-09T05:45:38.602Z,3.00
2018-09-09T05:46:13.952Z,2.90
2018-09-09T05:46:49.345Z,3.02
2018-09-09T05:47:24.611Z,3.10
2018-09-09T05:47:59.795Z,3.00
2018-09-09T05:48:35.095Z,2.67
2018-09-09T05:49:11.194Z,3.30
2018-09-09T05:49:46.866Z,4.30
2018-09-09T05:50:22.039Z,3.15
2018-09-09T05:50:57.355Z,3.55
2018-09-09T05:51:32.569Z,3.17
2018-09-09T05:52:08.013Z,3.42
2018-09-09T05:52:43.424Z,3.27
2018-09-09T05:53:18.810Z,2.80
2018-09-09T05:53:54.017Z,3.92
2018-09-09T05:54:29.430Z,4.10
2018-09-09T05:55:04.592Z,4.10
2018-09-09T05:55:39.932Z,3.72
2018-09-09T05:56:15.253Z,3.27
2018-09-09T05:56:50.433Z,4.05
2018-09-09T05:57:25.659Z,3.50
2018-09-09T05:58:01.027Z,3.90
2018-09-09T05:58:36.521Z,4.15
2018-09-09T05:59:12.376Z,4.05
2018-09-09T05:59:47.724Z,4.25
2018-09-09T06:00:22.899Z,3.55
2018-09-09T06:00:58.081Z,3.85
2018-09-09T06:01:33.291Z,4.55
2018-09-09T06:02:08.965Z,3.30
2018-09-09T06:02:44.339Z,3.95
2018-09-09T06:03:19.562Z,4.58
2018-09-09T06:03:54.781Z,4.30
2018-09-09T06:04:29.977Z,3.62
2018-09-09T06:05:05.725Z,3.37
2018-09-09T06:05:41.098Z,4.50
2018-09-09T06:06:16.366Z,4.12
2018-09-09T06:06:51.559Z,3.87
2018-09-09T06:07:26.896Z,4.00
2018-09-09T06:08:02.084Z,4.00
2018-09-09T06:08:37.736Z,4.35
2018-09-09T06:09:13.183Z,3.87
2018-09-09T06:09:48.444Z,4.25
2018-09-09T06:10:23.734Z,4.35
2018-09-09T06:10:58.918Z,4.92
2018-09-09T06:11:34.092Z,4.45
2018-09-09T06:12:09.660Z,3.90
2018-09-09T06:12:45.295Z,4.15
2018-09-09T06:13:20.689Z,4.12
2018-09-09T06:13:55.930Z,4.28
2018-09-09T06:14:31.115Z,4.08
2018-09-09T06:15:07.083Z,4.10
2018-09-09T06:15:42.614Z,4.37
2018-09-09T06:16:18.091Z,4.40
2018-09-09T06:16:53.311Z,3.98
2018-09-09T06:17:28.501Z,3.77
2018-09-09T06:18:03.670Z,3.98
2018-09-09T06:18:39.123Z,4.20
2018-09-09T06:19:14.629Z,3.95
2018-09-09T06:19:49.802Z,4.17
2018-09-09T06:20:24.979Z,3.62
2018-09-09T06:21:00.156Z,4.00
2018-09-09T06:21:36.155Z,3.75
2018-09-09T06:22:11.074Z,4.12
2018-09-09T06:22:46.552Z,4.37
2018-09-09T06:23:21.755Z,4.28
2018-09-09T06:23:56.969Z,4.58
2018-09-09T06:24:32.138Z,4.35
2018-09-09T06:25:07.615Z,5.05
2018-09-09T06:25:42.963Z,5.00
2018-09-09T06:26:18.399Z,5.10
2018-09-09T06:26:54.071Z,4.25
2018-09-09T06:27:29.283Z,4.75
2018-09-09T06:28:04.528Z,4.53
2018-09-09T06:28:39.997Z,5.12
2018-09-09T06:29:15.471Z,4.17
2018-09-09T06:29:50.727Z,5.87
2018-09-09T06:30:25.863Z,4.50
2018-09-09T06:31:01.021Z,4.85
2018-09-09T06:31:36.391Z,4.95
2018-09-09T06:32:11.762Z,4.50
2018-09-09T06:32:47.051Z,4.20
2018-09-09T06:33:22.217Z,4.50
2018-09-09T06:33:57.495Z,4.40
2018-09-09T06:34:32.806Z,4.33
2018-09-09T06:35:08.216Z,5.45
2018-09-09T06:35:43.082Z,4.33
2018-09-09T06:36:18.331Z,4.83
2018-09-09T06:36:53.675Z,4.97
2018-09-09T06:37:28.872Z,5.00
2018-09-09T06:38:04.067Z,4.33
2018-09-09T06:38:39.412Z,4.53
2018-09-09T06:39:14.883Z,5.10
2018-09-09T06:39:50.144Z,4.53
2018-09-09T06:40:25.327Z,5.22
2018-09-09T06:41:00.478Z,5.05
2018-09-09T06:41:35.733Z,4.95
2018-09-09T06:42:11.150Z,4.62
2018-09-09T06:42:46.488Z,4.80
2018-09-09T06:43:21.901Z,4.67
2018-09-09T06:43:57.306Z,4.55
2018-09-09T06:44:32.487Z,8.88
2018-09-09T06:45:07.792Z,4.97
2018-09-09T06:45:43.278Z,4.80
2018-09-09T06:46:18.509Z,4.60
2018-09-09T06:46:53.714Z,4.30
2018-09-09T06:47:28.881Z,5.33
2018-09-09T06:48:04.048Z,4.55
2018-09-09T06:48:39.322Z,4.97
2018-09-09T06:49:14.704Z,4.70
2018-09-09T06:49:49.300Z,5.47
2018-09-09T06:50:24.439Z,4.35
2018-09-09T06:50:59.635Z,5.72
2018-09-09T06:51:34.981Z,4.80
2018-09-09T06:52:10.649Z,4.55
2018-09-09T06:52:46.095Z,4.90
2018-09-09T06:53:21.418Z,4.92
2018-09-09T06:53:56.686Z,4.87
2018-09-09T06:54:31.847Z,4.85
2018-09-09T06:55:08.194Z,4.87
2018-09-09T06:55:43.575Z,4.62
2018-09-09T06:56:18.747Z,4.90
2018-09-09T06:56:54.058Z,4.33
2018-09-09T06:57:29.238Z,4.95
2018-09-09T06:58:04.741Z,5.22
2018-09-09T06:58:40.153Z,4.83
2018-09-09T06:59:15.602Z,4.53
2018-09-09T06:59:50.737Z,4.20
2018-09-09T07:00:25.885Z,4.83
2018-09-09T07:01:01.075Z,4.20
2018-09-09T07:01:36.737Z,4.87
2018-09-09T07:02:12.418Z,4.28
2018-09-09T07:02:47.916Z,4.83
2018-09-09T07:03:23.069Z,4.67
2018-09-09T07:03:58.265Z,4.35
2018-09-09T07:04:33.596Z,5.20
2018-09-09T07:05:09.089Z,5.60
2018-09-09T07:05:44.740Z,6.53
2018-09-09T07:06:19.978Z,4.58
2018-09-09T07:06:55.154Z,4.28
2018-09-09T07:07:30.338Z,4.35
2018-09-09T07:08:05.627Z,4.30
2018-09-09T07:08:40.927Z,4.00
2018-09-09T07:09:16.441Z,4.30
2018-09-09T07:09:51.595Z,4.42
2018-09-09T07:10:26.752Z,3.92
2018-09-09T07:11:02.221Z,4.37
2018-09-09T07:11:37.730Z,3.70
2018-09-09T07:12:13.853Z,3.98
2018-09-09T07:12:49.438Z,4.05
2018-09-09T07:13:24.605Z,3.70
2018-09-09T07:13:59.816Z,4.10
2018-09-09T07:14:35.671Z,4.10
2018-09-09T07:15:11.102Z,3.85
2018-09-09T07:15:46.521Z,3.85
2018-09-09T07:16:21.743Z,4.05
2018-09-09T07:16:57.008Z,3.80
2018-09-09T07:17:32.345Z,3.77
2018-09-09T07:18:07.680Z,4.40
2018-09-09T07:18:42.974Z,4.30
2018-09-09T07:19:18.251Z,3.80
2018-09-09T07:19:53.715Z,3.90
2018-09-09T07:20:28.906Z,4.00
2018-09-09T07:21:05.426Z,4.10
2018-09-09T07:21:45.525Z,3.98
2018-09-09T07:22:21.293Z,3.58
2018-09-09T07:22:56.625Z,4.33
2018-09-09T07:23:31.794Z,3.95
2018-09-09T07:24:07.173Z,3.90
2018-09-09T07:24:42.534Z,4.20
2018-09-09T07:25:18.137Z,3.58
2018-09-09T07:25:53.300Z,3.90
2018-09-09T07:26:28.614Z,4.40
2018-09-09T07:27:03.817Z,3.75
2018-09-09T07:27:39.381Z,4.05
2018-09-09T07:28:14.737Z,3.37
2018-09-09T07:28:49.933Z,3.92
2018-09-09T07:29:25.100Z,4.28
2018-09-09T07:30:00.343Z,3.67
2018-09-09T07:30:36.066Z,3.80
2018-09-09T07:31:11.553Z,3.60
2018-09-09T07:31:47.136Z,3.35
2018-09-09T07:32:22.467Z,3.40
2018-09-09T07:32:57.647Z,3.62
2018-09-09T07:33:32.818Z,3.58
2018-09-09T07:34:08.554Z,4.08
2018-09-09T07:34:44.110Z,4.10
2018-09-09T07:35:19.564Z,3.70
2018-09-09T07:35:54.749Z,3.92
2018-09-09T07:36:30.185Z,3.80
2018-09-09T07:37:05.436Z,3.90
2018-09-09T07:37:40.758Z,4.62
2018-09-09T07:38:15.969Z,4.12
2018-09-09T07:38:51.240Z,3.90
2018-09-09T07:39:26.431Z,3.80
2018-09-09T07:40:01.590Z,3.90
2018-09-09T07:40:37.553Z,4.10
2018-09-09T07:41:13.260Z,4.17
2018-09-09T07:41:48.483Z,3.72
2018-09-09T07:42:23.841Z,4.17
2018-09-09T07:42:59.015Z,4.00
2018-09-09T07:43:34.220Z,4.08
2018-09-09T07:44:10.386Z,4.58
2018-09-09T07:44:45.810Z,4.70
2018-09-09T07:45:21.223Z,4.67
2018-09-09T07:45:56.398Z,5.05
2018-09-09T07:46:31.791Z,4.25
2018-09-09T07:47:07.634Z,5.08
2018-09-09T07:47:43.194Z,4.85
2018-09-09T07:48:18.672Z,5.05
2018-09-09T07:48:53.811Z,4.42
2018-09-09T07:49:29.054Z,4.60
2018-09-09T07:50:04.367Z,5.83
2018-09-09T07:50:40.102Z,4.87
2018-09-09T07:51:15.639Z,5.00
2018-09-09T07:51:50.806Z,4.70